createdAt,value
2019-04-21T00:01:00.403Z,56.04
2019-04-21T00:15:55.885Z,55.98
2019-04-21T00:31:12.638Z,56.71
2019-04-21T00:45:59.908Z,57.78
2019-04-21T01:01:12.541Z,58.44
2019-04-21T01:16:21.234Z,59.41
2019-04-21T01:31:10.933Z,59.79
2019-04-21T01:46:11.208Z,60.16
2019-04-21T02:01:08.489Z,60.71
2019-04-21T02:16:34.297Z,61.22
2019-04-21T02:31:57.055Z,60.43
2019-04-21T02:46:50.255Z,59.70
2019-04-21T03:46:23.188Z,60.54
2019-04-21T04:16:33.693Z,60.29
2019-04-21T04:46:18.203Z,55.49
2019-04-21T05:01:32.621Z,48.17
2019-04-21T05:16:24.386Z,43.73
2019-04-21T05:31:27.096Z,40.22
2019-04-21T05:46:14.277Z,38.11
2019-04-21T06:01:27.547Z,35.66
2019-04-21T06:16:20.156Z,34.21
2019-04-21T06:31:57.609Z,32.61
2019-04-21T06:46:26.222Z,30.34
2019-04-21T07:01:21.609Z,29.04
2019-04-21T07:16:19.443Z,27.68
2019-04-21T07:31:25.414Z,27.26
2019-04-21T07:46:10.714Z,27.29
2019-04-21T08:01:48.474Z,26.86
2019-04-21T08:16:12.802Z,27.09
2019-04-21T08:31:49.942Z,26.95
2019-04-21T08:46:13.716Z,25.84
2019-04-21T09:16:17.087Z,25.06
2019-04-21T09:30:57.771Z,22.75
2019-04-21T09:45:51.980Z,21.83
2019-04-21T10:01:04.886Z,18.78
2019-04-21T10:15:58.672Z,19.74
2019-04-21T10:30:53.926Z,19.54
2019-04-21T10:45:50.816Z,18.18
2019-04-21T11:00:55.712Z,19.25
2019-04-21T11:15:51.165Z,18.42
2019-04-21T11:31:00.578Z,19.59
2019-04-21T11:45:58.053Z,19.47
2019-04-21T12:01:00.007Z,19.45
2019-04-21T12:15:52.722Z,19.46
2019-04-21T13:01:00.953Z,22.23
2019-04-21T13:15:51.705Z,21.11
2019-04-21T13:30:50.752Z,21.61
2019-04-21T13:45:52.150Z,21.91
2019-04-21T14:15:51.748Z,22.48
2019-04-21T14:30:50.547Z,23.34
2019-04-21T14:45:56.719Z,23.66
2019-04-21T15:00:55.601Z,24.01
2019-04-21T15:15:52.204Z,24.11
2019-04-21T15:30:50.550Z,24.49
2019-04-21T15:45:50.799Z,25.11
2019-04-21T16:00:56.500Z,25.72
2019-04-21T16:15:50.644Z,26.85
2019-04-21T16:30:52.145Z,27.78
2019-04-21T16:45:50.787Z,29.66
2019-04-21T17:16:07.841Z,31.67
2019-04-21T17:30:54.561Z,32.25
2019-04-21T17:45:51.051Z,32.52
2019-04-21T18:01:45.520Z,34.17
2019-04-21T18:16:11.077Z,34.32
2019-04-21T19:01:05.304Z,37.79
2019-04-21T19:16:31.251Z,38.10
2019-04-21T19:31:26.201Z,39.61
2019-04-21T19:46:14.450Z,39.16
2019-04-21T20:00:55.531Z,39.99
2019-04-21T20:16:21.628Z,41.97
2019-04-21T20:31:13.029Z,42.19
2019-04-21T21:16:13.491Z,44.18
2019-04-21T21:31:07.273Z,44.63
2019-04-21T21:45:55.670Z,45.58
2019-04-21T22:00:58.445Z,46.29
2019-04-21T22:15:56.454Z,46.71
2019-04-21T22:30:57.111Z,47.34
2019-04-21T22:45:53.514Z,47.91
2019-04-21T23:15:55.392Z,49.46
2019-04-21T23:31:19.815Z,50.61
2019-04-21T23:45:52.005Z,51.39
